Station History

Weather Underground - logo

Station Historical Data
Daily Summary for January 1, 2018 Units:  Metric    English   Both
« Previous Day
Next Day »
Daily Weekly Monthly Yearly Custom
  High: Low: Average:
Temperature: 17.1 °C 2.3 °C 8.7 °C
Dew Point: 8.3 °C 0.7 °C 4.9 °C
Humidity: 92 % 54 % 78 %
Wind Speed: 9.3 km/h 0 km/h 0.8 km/h
Wind Gust: 9.3 km/h - -
Wind:- - WSW
Pressure: 1026 hPa 1021.2 hPa -
Precipitation: 0 mm    
Historical Graphs
 
 
Tabular Data for January 1, 2018
Time Temperature Dew Point Pressure Wind Wind Speed Wind Gust Humidity Rainfall Rate (Hourly)
00:00 4.5 °C 2.8 °C 1022.2 hPa Calm     89 % 0 mm
00:05 4.4 °C 2.6 °C 1022.2 hPa Calm     88 % 0 mm
00:06 4.4 °C 2.6 °C 1022.2 hPa Calm     88 % 0 mm
00:11 4.4 °C 2.6 °C 1022.2 hPa Calm     88 % 0 mm
00:13 4.4 °C 2.6 °C 1022.2 hPa Calm     88 % 0 mm
00:18 4.4 °C 2.6 °C 1022.2 hPa Calm     88 % 0 mm
00:19 4.3 °C 2.5 °C 1022.2 hPa Calm     88 % 0 mm
00:22 4.3 °C 2.7 °C 1022.2 hPa Calm     89 % 0 mm
00:27 4.3 °C 2.6 °C 1022.2 hPa Calm     89 % 0 mm
00:31 4.3 °C 2.4 °C 1022.2 hPa Calm     88 % 0 mm
00:36 4.2 °C 2.3 °C 1022.2 hPa Calm     88 % 0 mm
00:39 4.1 °C 2.2 °C 1022.2 hPa Calm     88 % 0 mm
00:44 4 °C 2.2 °C 1022.2 hPa Calm     88 % 0 mm
00:47 4 °C 2.2 °C 1022.2 hPa Calm     88 % 0 mm
00:54 3.9 °C 2.2 °C 1022.2 hPa Calm     89 % 0 mm
00:59 4 °C 2.3 °C 1022.2 hPa Calm     89 % 0 mm
01:00 4 °C 2.3 °C 1022.2 hPa Calm     89 % 0 mm
01:01 4.1 °C 2.4 °C 1022.2 hPa Calm     89 % 0 mm
01:05 4.2 °C 2.5 °C 1022.2 hPa Calm     89 % 0 mm
01:10 4.4 °C 2.6 °C 1022.2 hPa Calm     88 % 0 mm
01:12 4.5 °C 2.5 °C 1022.2 hPa Calm     87 % 0 mm
01:17 4.7 °C 2.7 °C 1022.2 hPa North 1.9 km/h   87 % 0 mm
01:24 4.8 °C 2.6 °C 1022.2 hPa Calm     86 % 0 mm
01:27 4.7 °C 2.6 °C 1022.2 hPa Calm     86 % 0 mm
01:32 4.6 °C 2.4 °C 1022.2 hPa Calm     86 % 0 mm
01:38 4.5 °C 2.3 °C 1022.2 hPa Calm     86 % 0 mm
01:39 4.5 °C 2.3 °C 1022.2 hPa Calm     86 % 0 mm
01:41 4.5 °C 2.3 °C 1022.2 hPa Calm     86 % 0 mm
01:46 4.4 °C 2.4 °C 1022.2 hPa Calm     87 % 0 mm
01:51 4.2 °C 2.2 °C 1022.2 hPa Calm     87 % 0 mm
01:56 4.1 °C 2.2 °C 1022.2 hPa Calm     87 % 0 mm
02:01 3.9 °C 2.1 °C 1022.2 hPa Calm     88 % 0 mm
02:06 3.9 °C 2.3 °C 1022.2 hPa Calm     89 % 0 mm
02:07 3.9 °C 2.3 °C 1022.2 hPa Calm     89 % 0 mm
02:12 3.9 °C 2.3 °C 1022.2 hPa Calm     89 % 0 mm
02:13 3.9 °C 2.3 °C 1022.2 hPa Calm     89 % 0 mm
02:15 3.9 °C 2.3 °C 1022.2 hPa Calm     89 % 0 mm
02:20 3.9 °C 2.1 °C 1022.2 hPa Calm     88 % 0 mm
02:25 3.8 °C 1.8 °C 1022.2 hPa Calm     87 % 0 mm
02:26 3.7 °C 1.8 °C 1022.2 hPa Calm     87 % 0 mm
02:27 3.7 °C 1.8 °C 1022.2 hPa Calm     87 % 0 mm
02:32 3.5 °C 1.7 °C 1022.6 hPa Calm     88 % 0 mm
02:37 3.3 °C 1.5 °C 1022.6 hPa Calm     88 % 0 mm
02:42 3.2 °C 1.6 °C 1022.6 hPa Calm     89 % 0 mm
02:44 3.2 °C 1.6 °C 1022.6 hPa Calm     89 % 0 mm
02:49 3.1 °C 1.5 °C 1022.6 hPa Calm     89 % 0 mm
02:52 3.1 °C 1.5 °C 1022.6 hPa Calm     89 % 0 mm
02:53 3.1 °C 1.4 °C 1022.6 hPa Calm     89 % 0 mm
02:58 3.1 °C 1.4 °C 1022.6 hPa Calm     89 % 0 mm
02:59 3 °C 1.4 °C 1022.6 hPa Calm     89 % 0 mm
03:04 2.9 °C 1.3 °C 1022.6 hPa Calm     89 % 0 mm
03:05 2.9 °C 1.3 °C 1022.6 hPa Calm     89 % 0 mm
03:07 2.8 °C 1.2 °C 1022.9 hPa Calm     89 % 0 mm
03:10 2.8 °C 1.2 °C 1022.9 hPa Calm     89 % 0 mm
03:15 2.8 °C 1.3 °C 1022.6 hPa Calm     90 % 0 mm
03:17 2.8 °C 1.3 °C 1022.6 hPa Calm     90 % 0 mm
03:18 2.9 °C 1.4 °C 1022.6 hPa Calm     90 % 0 mm
03:24 3.1 °C 1.6 °C 1022.6 hPa Calm     90 % 0 mm
03:26 3.1 °C 1.4 °C 1022.6 hPa Calm     89 % 0 mm
03:30 3 °C 1.5 °C 1022.9 hPa Calm     90 % 0 mm
03:33 3.1 °C 1.6 °C 1022.9 hPa Calm     90 % 0 mm
03:38 3.1 °C 1.6 °C 1023.2 hPa Calm     90 % 0 mm
03:40 3.1 °C 1.6 °C 1023.2 hPa Calm     90 % 0 mm
03:45 3 °C 1.4 °C 1022.9 hPa Calm     89 % 0 mm
03:46 3 °C 1.4 °C 1022.9 hPa Calm     89 % 0 mm
03:49 3.1 °C 1.4 °C 1023.2 hPa Calm     89 % 0 mm
03:52 3.1 °C 1.5 °C 1022.9 hPa Calm     89 % 0 mm
03:57 3.1 °C 1.3 °C 1022.9 hPa Calm     88 % 0 mm
04:00 3.1 °C 1.3 °C 1022.9 hPa Calm     88 % 0 mm
04:05 3.1 °C 1.3 °C 1023.2 hPa Calm     88 % 0 mm
04:07 3.1 °C 1.3 °C 1022.9 hPa Calm     88 % 0 mm
04:12 2.8 °C 0.9 °C 1023.2 hPa Calm     87 % 0 mm
04:16 2.7 °C 0.9 °C 1023.2 hPa Calm     88 % 0 mm
04:19 2.7 °C 1.1 °C 1023.2 hPa Calm     89 % 0 mm
04:22 2.7 °C 1.1 °C 1023.2 hPa Calm     89 % 0 mm
04:26 2.7 °C 1.2 °C 1023.2 hPa Calm     90 % 0 mm
04:27 2.7 °C 1.2 °C 1023.2 hPa Calm     90 % 0 mm
04:32 2.7 °C 1.2 °C 1023.2 hPa Calm     90 % 0 mm
04:33 2.7 °C 1.2 °C 1023.2 hPa Calm     90 % 0 mm
04:38 2.7 °C 1.2 °C 1023.2 hPa Calm     90 % 0 mm
04:41 2.7 °C 1.2 °C 1023.2 hPa Calm     90 % 0 mm
04:42 2.7 °C 1.2 °C 1023.2 hPa Calm     90 % 0 mm
04:47 2.7 °C 1.4 °C 1023.2 hPa Calm     91 % 0 mm
04:48 2.7 °C 1.4 °C 1023.2 hPa Calm     91 % 0 mm
04:49 2.7 °C 1.4 °C 1023.2 hPa Calm     91 % 0 mm
04:54 2.8 °C 1.4 °C 1023.2 hPa Calm     91 % 0 mm
04:59 2.8 °C 1.3 °C 1023.2 hPa Calm     90 % 0 mm
05:04 2.7 °C 1.2 °C 1023.2 hPa Calm     90 % 0 mm
05:06 2.7 °C 1.2 °C 1023.2 hPa Calm     90 % 0 mm
05:11 2.6 °C 1.1 °C 1023.2 hPa Calm     90 % 0 mm
05:13 2.6 °C 1.1 °C 1023.2 hPa Calm     90 % 0 mm
05:18 2.6 °C 1.2 °C 1023.2 hPa Calm     91 % 0 mm
05:21 2.6 °C 1.1 °C 1023.2 hPa Calm     90 % 0 mm
05:23 2.6 °C 1.1 °C 1023.2 hPa Calm     90 % 0 mm
05:28 2.4 °C 0.8 °C 1023.2 hPa Calm     89 % 0 mm
05:33 2.5 °C 1 °C 1023.2 hPa Calm     90 % 0 mm
05:38 2.5 °C 0.9 °C 1023.2 hPa Calm     89 % 0 mm
05:40 2.4 °C 0.8 °C 1023.2 hPa Calm     89 % 0 mm
05:44 2.5 °C 0.9 °C 1023.6 hPa Calm     89 % 0 mm
05:46 2.5 °C 1 °C 1023.6 hPa Calm     90 % 0 mm
05:51 2.6 °C 1.1 °C 1023.6 hPa Calm     90 % 0 mm
05:52 2.6 °C 1.1 °C 1023.6 hPa Calm     90 % 0 mm
05:57 2.4 °C 0.8 °C 1023.6 hPa Calm     89 % 0 mm
06:02 2.3 °C 0.7 °C 1023.6 hPa Calm     89 % 0 mm
06:07 2.3 °C 0.8 °C 1023.9 hPa Calm     90 % 0 mm
06:11 2.3 °C 0.8 °C 1023.9 hPa Calm     90 % 0 mm
06:16 2.4 °C 0.9 °C 1023.9 hPa Calm     90 % 0 mm
06:19 2.5 °C 1.2 °C 1023.9 hPa North 1.9 km/h 1.9 km/h 91 % 0 mm
06:24 2.7 °C 1.2 °C 1024.3 hPa North 1.9 km/h 1.9 km/h 90 % 0 mm
06:25 2.7 °C 1.2 °C 1024.3 hPa Calm   0.3 km/h 90 % 0 mm
06:29 2.8 °C 1.3 °C 1024.3 hPa North 1.9 km/h   90 % 0 mm
06:34 2.9 °C 1.4 °C 1024.3 hPa North 3.7 km/h 3.7 km/h 90 % 0 mm
06:39 2.8 °C 1.2 °C 1024.3 hPa North 1.9 km/h 1.9 km/h 89 % 0 mm
06:40 2.8 °C 1.2 °C 1024.3 hPa North 1.9 km/h 1.9 km/h 89 % 0 mm
06:42 2.7 °C 1.1 °C 1024.3 hPa North 3.7 km/h 3.7 km/h 89 % 0 mm
06:44 2.6 °C 1 °C 1024.3 hPa North 1.9 km/h 1.9 km/h 89 % 0 mm
06:49 2.4 °C 0.8 °C 1024.3 hPa Calm     89 % 0 mm
06:54 2.4 °C 0.9 °C 1024.3 hPa North 3.7 km/h 3.7 km/h 90 % 0 mm
06:59 2.4 °C 0.9 °C 1024.3 hPa Calm   0.3 km/h 90 % 0 mm
07:00 2.4 °C 0.9 °C 1024.3 hPa North 1.9 km/h   90 % 0 mm
07:05 2.5 °C 1.2 °C 1024.3 hPa North 1.9 km/h 1.9 km/h 91 % 0 mm
07:10 2.6 °C 1.3 °C 1024.3 hPa Calm     91 % 0 mm
07:12 2.7 °C 1.3 °C 1024.3 hPa North 1.9 km/h   91 % 0 mm
07:17 2.7 °C 1.4 °C 1024.3 hPa Calm     91 % 0 mm
07:22 2.7 °C 1.2 °C 1024.3 hPa Calm     90 % 0 mm
07:23 2.7 °C 1.2 °C 1024.3 hPa Calm     90 % 0 mm
07:25 2.7 °C 1.2 °C 1024.3 hPa Calm     90 % 0 mm
07:28 2.7 °C 1.2 °C 1024.3 hPa Calm     90 % 0 mm
07:33 2.7 °C 1.3 °C 1024.3 hPa Calm     91 % 0 mm
07:35 2.7 °C 1.4 °C 1024.3 hPa Calm     91 % 0 mm
07:41 3 °C 1.8 °C 1024.3 hPa Calm     92 % 0 mm
07:43 3.2 °C 2 °C 1024.3 hPa Calm     92 % 0 mm
07:48 3.5 °C 2.3 °C 1024.3 hPa Calm     92 % 0 mm
07:49 3.6 °C 2.2 °C 1024.3 hPa Calm     91 % 0 mm
07:52 3.7 °C 2.3 °C 1024.3 hPa Calm     91 % 0 mm
07:54 3.8 °C 2.4 °C 1024.3 hPa Calm     91 % 0 mm
07:59 4.1 °C 2.6 °C 1024.6 hPa Calm     90 % 0 mm
08:03 4.4 °C 2.7 °C 1024.6 hPa Calm     89 % 0 mm
08:08 4.8 °C 2.8 °C 1024.6 hPa Calm     87 % 0 mm
08:09 4.8 °C 2.8 °C 1024.6 hPa Calm     87 % 0 mm
08:14 5.1 °C 3.1 °C 1024.6 hPa Calm     87 % 0 mm
08:19 5.4 °C 3.2 °C 1024.6 hPa Calm     86 % 0 mm
08:24 5.8 °C 3.6 °C 1024.6 hPa Calm     86 % 0 mm
08:25 5.9 °C 3.7 °C 1024.6 hPa Calm     86 % 0 mm
08:26 6 °C 3.8 °C 1024.6 hPa Calm     86 % 0 mm
08:29 6.2 °C 4.1 °C 1024.6 hPa Calm     86 % 0 mm
08:32 6.4 °C 4.2 °C 1024.9 hPa Calm     86 % 0 mm
08:36 6.8 °C 4.3 °C 1024.9 hPa SSE 1.9 km/h 1.9 km/h 84 % 0 mm
08:37 6.8 °C 4.3 °C 1024.9 hPa SSE 1.9 km/h 1.9 km/h 84 % 0 mm
08:38 6.9 °C 4.4 °C 1024.9 hPa Calm     84 % 0 mm
08:43 7.1 °C 4.2 °C 1024.9 hPa SSE 1.9 km/h 1.9 km/h 82 % 0 mm
08:49 7.1 °C 3.9 °C 1024.9 hPa South 1.9 km/h 1.9 km/h 80 % 0 mm
08:54 7.1 °C 4.1 °C 1024.9 hPa Calm     81 % 0 mm
08:57 7.2 °C 3.9 °C 1024.9 hPa Calm     80 % 0 mm
08:58 7.2 °C 3.9 °C 1024.9 hPa SSE 5.6 km/h 5.6 km/h 80 % 0 mm
09:03 7.3 °C 3.9 °C 1024.9 hPa SSE 3.7 km/h 3.7 km/h 79 % 0 mm
09:04 7.3 °C 3.7 °C 1024.9 hPa SSE 3.7 km/h 3.7 km/h 78 % 0 mm
09:09 7.6 °C 3.8 °C 1025.3 hPa SE 9.3 km/h 9.3 km/h 77 % 0 mm
09:10 7.6 °C 3.8 °C 1025.3 hPa ESE 5.6 km/h 5.6 km/h 77 % 0 mm
09:15 7.8 °C 4 °C 1025.3 hPa SSE 5.6 km/h 5.6 km/h 77 % 0 mm
09:18 7.8 °C 4.1 °C 1025.3 hPa SSE 5.6 km/h 5.6 km/h 77 % 0 mm
09:22 8 °C 4.4 °C 1025.3 hPa SW 3.7 km/h 3.7 km/h 78 % 0 mm
09:26 8.3 °C 4.7 °C 1025.6 hPa ESE 5.6 km/h 5.6 km/h 78 % 0 mm
09:31 8.6 °C 5 °C 1025.6 hPa SSE 5.6 km/h 5.6 km/h 78 % 0 mm
09:33 8.7 °C 5.1 °C 1025.6 hPa SE 5.6 km/h 5.6 km/h 78 % 0 mm
09:38 9.1 °C 5.4 °C 1026 hPa SSW 4.8 km/h 4.8 km/h 78 % 0 mm
09:39 9.1 °C 5.4 °C 1026 hPa SE 5.6 km/h 5.6 km/h 78 % 0 mm
09:44 9.2 °C 5.4 °C 1026 hPa South 6.4 km/h 6.4 km/h 77 % 0 mm
09:49 9.3 °C 5.5 °C 1026 hPa South 3.7 km/h 3.7 km/h 77 % 0 mm
09:50 9.3 °C 5.5 °C 1026 hPa South 1.9 km/h 1.9 km/h 77 % 0 mm
09:55 9.6 °C 5.7 °C 1026 hPa SSW 3.7 km/h 3.7 km/h 77 % 0 mm
09:56 9.6 °C 5.7 °C 1026 hPa NE 3.7 km/h 3.7 km/h 77 % 0 mm
10:01 9.7 °C 5.6 °C 1026 hPa ESE 1.9 km/h 1.9 km/h 76 % 0 mm
10:06 9.8 °C 5.8 °C 1026 hPa Calm     76 % 0 mm
10:07 9.9 °C 5.8 °C 1026 hPa South 1.9 km/h 1.9 km/h 76 % 0 mm
10:12 10.2 °C 5.9 °C 1026 hPa SSE 1.9 km/h 1.9 km/h 75 % 0 mm
10:14 10.3 °C 5.8 °C 1026 hPa NE 1.9 km/h 1.9 km/h 74 % 0 mm
10:19 10.6 °C 6.2 °C 1025.6 hPa SE 1.9 km/h 1.9 km/h 74 % 0 mm
10:20 10.7 °C 6.4 °C 1025.6 hPa SSW 1.9 km/h 1.9 km/h 75 % 0 mm
10:23 10.9 °C 6.4 °C 1025.6 hPa ESE 1.6 km/h 1.6 km/h 74 % 0 mm
10:28 11.3 °C 6.6 °C 1025.6 hPa SSE 1.9 km/h 1.9 km/h 73 % 0 mm
10:30 11.4 °C 6.5 °C 1025.6 hPa ESE 1.9 km/h 1.9 km/h 72 % 0 mm
10:31 11.5 °C 6.6 °C 1025.6 hPa SSE 3.7 km/h 3.7 km/h 72 % 0 mm
10:35 11.8 °C 6.7 °C 1025.6 hPa SSE 1.9 km/h 1.9 km/h 71 % 0 mm
10:40 11.9 °C 6.7 °C 1025.6 hPa SE 1.9 km/h 1.9 km/h 70 % 0 mm
10:41 11.9 °C 6.7 °C 1025.6 hPa SE 3.7 km/h 3.7 km/h 70 % 0 mm
10:42 12 °C 6.7 °C 1025.3 hPa NE 1.9 km/h 1.9 km/h 70 % 0 mm
10:47 12.2 °C 6.7 °C 1025.3 hPa South 1.9 km/h   69 % 0 mm
10:50 12.4 °C 6.9 °C 1025.3 hPa East 1.9 km/h 1.9 km/h 69 % 0 mm
10:54 12.7 °C 7.1 °C 1025.3 hPa South 1.6 km/h   69 % 0 mm
10:59 12.9 °C 6.9 °C 1025.3 hPa SSE 3.7 km/h 3.7 km/h 67 % 0 mm
11:01 13.1 °C 6.8 °C 1025.3 hPa SE 1.6 km/h 1.6 km/h 66 % 0 mm
11:03 13.2 °C 7.2 °C 1025.3 hPa SE 1.9 km/h 1.9 km/h 67 % 0 mm
11:07 13.3 °C 6.9 °C 1024.9 hPa Calm   0.2 km/h 65 % 0 mm
11:12 13.4 °C 6.9 °C 1024.9 hPa WNW 1.9 km/h   65 % 0 mm
11:13 13.4 °C 6.9 °C 1024.9 hPa Calm     65 % 0 mm
11:18 13.6 °C 7.3 °C 1024.9 hPa NNW 1.9 km/h 1.9 km/h 66 % 0 mm
11:20 13.6 °C 7.2 °C 1024.9 hPa WNW 1.9 km/h 1.9 km/h 65 % 0 mm
11:21 13.6 °C 7.2 °C 1024.6 hPa West 1.9 km/h 1.9 km/h 65 % 0 mm
11:26 13.4 °C 7.2 °C 1024.6 hPa West 3.7 km/h 3.7 km/h 66 % 0 mm
11:31 13.6 °C 7.3 °C 1024.6 hPa Calm     66 % 0 mm
11:32 13.6 °C 7.6 °C 1024.6 hPa NNW 1.9 km/h 1.9 km/h 67 % 0 mm
11:37 13.7 °C 7.3 °C 1024.3 hPa NW 1.9 km/h 1.9 km/h 65 % 0 mm
11:42 13.9 °C 7.4 °C 1024.3 hPa WNW 3.7 km/h 3.7 km/h 65 % 0 mm
11:43 13.9 °C 7.4 °C 1024.3 hPa WSW 3.7 km/h 3.7 km/h 65 % 0 mm
11:45 13.9 °C 7.7 °C 1024.3 hPa WNW 1.9 km/h 1.9 km/h 66 % 0 mm
11:49 14.1 °C 7.6 °C 1024.3 hPa NNW 1.9 km/h 1.9 km/h 65 % 0 mm
11:54 14.2 °C 7.5 °C 1024.3 hPa West 1.9 km/h 1.9 km/h 64 % 0 mm
11:55 14.2 °C 7.5 °C 1024.3 hPa WNW 1.9 km/h   64 % 0 mm
11:56 14.2 °C 7.7 °C 1024.3 hPa WNW 1.6 km/h   65 % 0 mm
12:01 14.2 °C 7.4 °C 1023.9 hPa WNW 1.9 km/h 1.9 km/h 64 % 0 mm
12:02 14.2 °C 7.4 °C 1023.9 hPa NW 3.7 km/h 3.7 km/h 64 % 0 mm
12:06 14.2 °C 7.5 °C 1023.9 hPa SSW 1.6 km/h   64 % 0 mm
12:09 14.4 °C 7.9 °C 1023.6 hPa SSE 1.9 km/h 1.9 km/h 65 % 0 mm
12:11 14.6 °C 7.8 °C 1023.6 hPa Calm     64 % 0 mm
12:15 14.6 °C 7.4 °C 1023.6 hPa Calm     62 % 0 mm
12:16 14.7 °C 7.9 °C 1023.6 hPa Calm     64 % 0 mm
12:21 14.8 °C 7.6 °C 1023.2 hPa WNW 1.9 km/h 1.9 km/h 62 % 0 mm
12:24 14.7 °C 7.7 °C 1023.2 hPa WNW 1.9 km/h   63 % 0 mm
12:26 14.7 °C 8 °C 1023.2 hPa Calm     64 % 0 mm
12:30 14.8 °C 7.6 °C 1022.9 hPa WNW 1.9 km/h 1.9 km/h 62 % 0 mm
12:33 14.8 °C 7.6 °C 1022.9 hPa Calm     62 % 0 mm
12:36 14.9 °C 7.7 °C 1022.9 hPa Calm     62 % 0 mm
12:40 15.1 °C 7.7 °C 1022.9 hPa Calm     61 % 0 mm
12:45 15.4 °C 7.7 °C 1022.6 hPa West 1.9 km/h 1.9 km/h 60 % 0 mm
12:50 15.4 °C 7.7 °C 1022.6 hPa WNW 1.9 km/h 1.9 km/h 60 % 0 mm
12:52 15.5 °C 7.5 °C 1022.6 hPa NW 1.9 km/h 1.9 km/h 59 % 0 mm
12:58 15.7 °C 8 °C 1022.6 hPa Calm   0.8 km/h 60 % 0 mm
13:00 15.7 °C 8 °C 1022.6 hPa WNW 1.9 km/h   60 % 0 mm
13:01 15.7 °C 7.7 °C 1022.2 hPa Calm     59 % 0 mm
13:06 15.8 °C 8.1 °C 1022.2 hPa Calm     60 % 0 mm
13:07 15.8 °C 8.1 °C 1022.2 hPa Calm     60 % 0 mm
13:12 16.2 °C 8.2 °C 1022.2 hPa WNW 3.7 km/h 3.7 km/h 59 % 0 mm
13:13 16.2 °C 8.2 °C 1022.2 hPa Calm     59 % 0 mm
13:18 16.2 °C 7.9 °C 1021.9 hPa NW 1.9 km/h   58 % 0 mm
13:20 16.3 °C 8 °C 1021.9 hPa WSW 1.9 km/h   58 % 0 mm
13:22 16.3 °C 8 °C 1021.9 hPa WNW 1.9 km/h 1.9 km/h 58 % 0 mm
13:27 16.4 °C 7.8 °C 1021.9 hPa Calm     57 % 0 mm
13:32 16.5 °C 8.2 °C 1021.9 hPa NW 3.7 km/h 3.7 km/h 58 % 0 mm
13:34 16.5 °C 7.9 °C 1021.9 hPa West 3.7 km/h 3.7 km/h 57 % 0 mm
13:39 16.4 °C 7.9 °C 1021.6 hPa WNW 1.9 km/h 1.9 km/h 57 % 0 mm
13:40 16.4 °C 7.9 °C 1021.6 hPa WNW 1.9 km/h   57 % 0 mm
13:41 16.5 °C 7.9 °C 1021.6 hPa WNW 1.9 km/h 1.9 km/h 57 % 0 mm
13:46 16.6 °C 8 °C 1021.6 hPa WNW 1.9 km/h 1.9 km/h 57 % 0 mm
13:48 16.6 °C 8 °C 1021.6 hPa WNW 1.6 km/h 1.6 km/h 57 % 0 mm
13:52 16.6 °C 8 °C 1021.6 hPa WNW 1.9 km/h 1.9 km/h 57 % 0 mm
13:53 16.7 °C 8.1 °C 1021.6 hPa WNW 1.9 km/h 1.9 km/h 57 % 0 mm
13:58 16.7 °C 7.9 °C 1021.6 hPa NW 1.9 km/h 1.9 km/h 56 % 0 mm
14:02 16.7 °C 7.9 °C 1021.6 hPa Calm     56 % 0 mm
14:05 16.8 °C 7.9 °C 1021.6 hPa NW 1.9 km/h 1.9 km/h 56 % 0 mm
14:09 16.8 °C 8.3 °C 1021.6 hPa NNW 1.9 km/h 1.9 km/h 57 % 0 mm
14:10 16.9 °C 8.3 °C 1021.6 hPa NW 3.7 km/h 3.7 km/h 57 % 0 mm
14:15 16.9 °C 8.1 °C 1021.6 hPa NNE 1.9 km/h 1.9 km/h 56 % 0 mm
14:17 16.9 °C 8.1 °C 1021.6 hPa WNW 1.9 km/h   56 % 0 mm
14:22 17 °C 7.9 °C 1021.6 hPa WNW 3.7 km/h 3.7 km/h 55 % 0 mm
14:27 17 °C 7.9 °C 1021.6 hPa West 1.9 km/h 1.9 km/h 55 % 0 mm
14:29 17.1 °C 7.9 °C 1021.6 hPa NW 1.9 km/h 1.9 km/h 55 % 0 mm
14:34 17.1 °C 7.7 °C 1021.6 hPa Calm     54 % 0 mm
14:36 17.1 °C 7.7 °C 1021.6 hPa Calm   0.3 km/h 54 % 0 mm
14:40 17.1 °C 7.9 °C 1021.6 hPa NW 1.9 km/h 1.9 km/h 55 % 0 mm
14:45 17 °C 8.2 °C 1021.6 hPa WNW 1.6 km/h 1.6 km/h 56 % 0 mm
14:46 17 °C 8.2 °C 1021.6 hPa NW 1.9 km/h 1.9 km/h 56 % 0 mm
14:50 17 °C 7.9 °C 1021.6 hPa NW 1.9 km/h   55 % 0 mm
14:55 17.1 °C 7.9 °C 1021.6 hPa Calm     55 % 0 mm
15:00 16.9 °C 7.6 °C 1021.6 hPa Calm   0.3 km/h 54 % 0 mm
15:01 16.9 °C 7.8 °C 1021.6 hPa NW 1.9 km/h 1.9 km/h 55 % 0 mm
15:06 16.8 °C 7.4 °C 1021.9 hPa Calm     54 % 0 mm
15:07 16.8 °C 7.4 °C 1021.9 hPa Calm     54 % 0 mm
15:11 16.8 °C 7.7 °C 1021.9 hPa WNW 1.6 km/h 1.6 km/h 55 % 0 mm
15:13 16.8 °C 7.4 °C 1021.9 hPa WNW 1.9 km/h 1.9 km/h 54 % 0 mm
15:18 16.7 °C 7.3 °C 1021.9 hPa Calm     54 % 0 mm
15:21 16.7 °C 7.3 °C 1021.6 hPa WNW 1.9 km/h 1.9 km/h 54 % 0 mm
15:24 16.6 °C 7.2 °C 1021.6 hPa WNW 1.9 km/h 1.9 km/h 54 % 0 mm
15:28 16.4 °C 7.4 °C 1021.6 hPa Calm     55 % 0 mm
15:31 16.4 °C 7.3 °C 1021.6 hPa Calm     55 % 0 mm
15:35 16.3 °C 7.5 °C 1021.6 hPa Calm     56 % 0 mm
15:37 16.2 °C 7.4 °C 1021.6 hPa Calm     56 % 0 mm
15:42 16.1 °C 7.6 °C 1021.6 hPa Calm     57 % 0 mm
15:47 15.9 °C 7.7 °C 1021.6 hPa Calm     58 % 0 mm
15:48 15.9 °C 7.6 °C 1021.6 hPa Calm     58 % 0 mm
15:53 15.7 °C 7.7 °C 1021.6 hPa Calm     59 % 0 mm
15:58 15.5 °C 7.8 °C 1021.6 hPa Calm     60 % 0 mm
16:00 15.4 °C 7.7 °C 1021.6 hPa Calm     60 % 0 mm
16:02 15.3 °C 7.8 °C 1021.6 hPa Calm     61 % 0 mm
16:06 15.3 °C 7.8 °C 1021.6 hPa Calm     61 % 0 mm
16:11 15.2 °C 7.9 °C 1021.6 hPa WNW 1.9 km/h 1.9 km/h 62 % 0 mm
16:12 15.2 °C 7.9 °C 1021.6 hPa WNW 1.6 km/h   62 % 0 mm
16:17 15.2 °C 7.9 °C 1021.6 hPa WNW 1.9 km/h 1.9 km/h 62 % 0 mm
16:20 15.2 °C 7.9 °C 1021.6 hPa Calm     62 % 0 mm
16:22 15.1 °C 7.9 °C 1021.2 hPa Calm     62 % 0 mm
16:27 15 °C 8 °C 1021.2 hPa Calm     63 % 0 mm
16:29 14.9 °C 7.9 °C 1021.2 hPa Calm     63 % 0 mm
16:34 14.8 °C 8.1 °C 1021.6 hPa Calm     64 % 0 mm
16:39 14.6 °C 7.9 °C 1021.6 hPa Calm     64 % 0 mm
16:40 14.6 °C 7.9 °C 1021.6 hPa Calm     64 % 0 mm
16:44 14.4 °C 7.9 °C 1021.6 hPa Calm     65 % 0 mm
16:46 14.3 °C 7.8 °C 1021.6 hPa Calm     65 % 0 mm
16:49 14.1 °C 7.8 °C 1021.6 hPa Calm     66 % 0 mm
16:52 13.9 °C 7.7 °C 1021.6 hPa Calm     66 % 0 mm
16:57 13.7 °C 7.9 °C 1021.6 hPa Calm     68 % 0 mm
17:02 13.3 °C 7.6 °C 1021.6 hPa Calm     68 % 0 mm
17:03 13.3 °C 7.6 °C 1021.6 hPa Calm     68 % 0 mm
17:08 13 °C 7.7 °C 1021.6 hPa Calm     70 % 0 mm
17:14 12.6 °C 7.5 °C 1021.6 hPa Calm     71 % 0 mm
17:16 12.4 °C 7.9 °C 1021.6 hPa Calm     74 % 0 mm
17:20 12.4 °C 7.9 °C 1021.6 hPa Calm     74 % 0 mm
17:23 12.3 °C 7.6 °C 1021.9 hPa Calm     73 % 0 mm
17:25 12.3 °C 7.8 °C 1021.9 hPa Calm     74 % 0 mm
17:30 12.2 °C 7.5 °C 1021.9 hPa Calm     73 % 0 mm
17:31 12.2 °C 7.7 °C 1021.9 hPa Calm     74 % 0 mm
17:37 12 °C 7.5 °C 1021.9 hPa Calm     74 % 0 mm
17:42 11.9 °C 7.7 °C 1021.9 hPa Calm     75 % 0 mm
17:45 11.8 °C 7.6 °C 1022.2 hPa Calm     75 % 0 mm
17:50 11.7 °C 7.6 °C 1022.2 hPa Calm     76 % 0 mm
17:53 11.6 °C 7.4 °C 1022.2 hPa Calm     76 % 0 mm
17:56 11.4 °C 7.3 °C 1022.2 hPa Calm     76 % 0 mm
17:58 11.3 °C 7.3 °C 1022.2 hPa Calm     76 % 0 mm
18:03 11.2 °C 7.3 °C 1022.2 hPa Calm     77 % 0 mm
18:08 11.1 °C 7.4 °C 1022.2 hPa Calm     78 % 0 mm
18:09 11 °C 7.3 °C 1022.2 hPa Calm     78 % 0 mm
18:14 11 °C 7.3 °C 1022.2 hPa Calm     78 % 0 mm
18:19 10.9 °C 7.2 °C 1022.6 hPa Calm     78 % 0 mm
18:24 10.8 °C 7.2 °C 1022.6 hPa Calm     78 % 0 mm
18:25 10.8 °C 7.2 °C 1022.6 hPa Calm     78 % 0 mm
18:30 10.7 °C 7 °C 1022.6 hPa Calm     78 % 0 mm
18:35 10.5 °C 7 °C 1022.6 hPa Calm     79 % 0 mm
18:41 10.4 °C 6.9 °C 1022.6 hPa Calm     79 % 0 mm
18:46 10.4 °C 6.9 °C 1022.6 hPa Calm     79 % 0 mm
18:53 10.2 °C 6.9 °C 1022.6 hPa Calm     80 % 0 mm
18:58 10.1 °C 6.9 °C 1022.9 hPa Calm     81 % 0 mm
18:59 10.1 °C 6.9 °C 1022.6 hPa Calm     81 % 0 mm
19:04 9.9 °C 6.8 °C 1022.9 hPa Calm     81 % 0 mm
19:09 9.8 °C 6.8 °C 1022.6 hPa Calm     82 % 0 mm
19:13 9.7 °C 6.7 °C 1022.9 hPa Calm     82 % 0 mm
19:19 9.4 °C 6.5 °C 1022.6 hPa Calm     82 % 0 mm
19:20 9.4 °C 6.4 °C 1022.6 hPa Calm     82 % 0 mm
19:25 9.2 °C 6.5 °C 1022.6 hPa Calm     83 % 0 mm
19:29 9.1 °C 6.3 °C 1022.6 hPa Calm     83 % 0 mm
19:34 9.1 °C 6.7 °C 1022.9 hPa Calm     85 % 0 mm
19:35 9.1 °C 6.7 °C 1022.9 hPa Calm     85 % 0 mm
19:40 9.2 °C 6.6 °C 1022.9 hPa Calm     84 % 0 mm
19:45 9 °C 6.3 °C 1022.9 hPa Calm     83 % 0 mm
19:50 8.7 °C 5.9 °C 1022.9 hPa Calm     83 % 0 mm
19:51 8.6 °C 6.1 °C 1022.9 hPa Calm     84 % 0 mm
19:56 8.5 °C 6.1 °C 1022.9 hPa Calm     85 % 0 mm
19:59 8.4 °C 6 °C 1022.9 hPa Calm     85 % 0 mm
20:04 8.3 °C 6.1 °C 1022.9 hPa Calm     86 % 0 mm
20:06 8.3 °C 6.1 °C 1022.9 hPa Calm     86 % 0 mm
20:11 8.6 °C 6.2 °C 1022.9 hPa Calm     85 % 0 mm
20:13 8.7 °C 6.3 °C 1022.9 hPa Calm     85 % 0 mm
20:18 9 °C 6.4 °C 1022.9 hPa Calm     84 % 0 mm
20:21 9.1 °C 6.4 °C 1022.9 hPa Calm     83 % 0 mm
20:24 9.1 °C 6.3 °C 1022.9 hPa Calm     83 % 0 mm
20:29 9.1 °C 6.2 °C 1022.9 hPa Calm     82 % 0 mm
20:32 9 °C 6.1 °C 1022.9 hPa Calm     82 % 0 mm
20:37 8.8 °C 5.9 °C 1022.9 hPa Calm     82 % 0 mm
20:41 8.6 °C 5.9 °C 1022.9 hPa Calm     83 % 0 mm
20:46 8.4 °C 5.7 °C 1022.9 hPa Calm     83 % 0 mm
20:47 8.4 °C 5.7 °C 1022.9 hPa Calm     83 % 0 mm
20:48 8.3 °C 5.8 °C 1022.9 hPa Calm     84 % 0 mm
20:53 8.1 °C 5.6 °C 1022.9 hPa Calm     84 % 0 mm
20:55 8.1 °C 5.5 °C 1022.9 hPa Calm     84 % 0 mm
20:59 7.8 °C 5.3 °C 1023.2 hPa Calm     84 % 0 mm
21:04 7.6 °C 5 °C 1023.2 hPa Calm     84 % 0 mm
21:09 7.3 °C 5 °C 1023.2 hPa Calm     85 % 0 mm
21:11 7.3 °C 5.1 °C 1023.2 hPa Calm     86 % 0 mm
21:14 7.2 °C 5 °C 1023.2 hPa Calm     86 % 0 mm
21:21 6.8 °C 4.7 °C 1023.2 hPa Calm     86 % 0 mm
21:30 6.7 °C 4.9 °C 1023.2 hPa Calm     88 % 0 mm
21:35 6.7 °C 4.7 °C 1023.2 hPa Calm     87 % 0 mm
21:36 6.7 °C 4.7 °C 1023.2 hPa Calm     87 % 0 mm
21:37 6.7 °C 4.9 °C 1023.2 hPa Calm     88 % 0 mm
21:42 6.8 °C 4.9 °C 1023.2 hPa Calm     88 % 0 mm
21:47 6.9 °C 5.2 °C 1023.6 hPa Calm     89 % 0 mm
21:49 6.9 °C 5.2 °C 1023.2 hPa Calm     89 % 0 mm
21:53 6.9 °C 5.2 °C 1023.2 hPa Calm     89 % 0 mm
21:58 6.9 °C 5.3 °C 1023.6 hPa Calm     89 % 0 mm
22:03 7.2 °C 5.5 °C 1023.6 hPa Calm     89 % 0 mm
22:04 7.2 °C 5.5 °C 1023.2 hPa Calm     89 % 0 mm
22:06 7.2 °C 5.5 °C 1023.6 hPa Calm     89 % 0 mm
22:09 7.2 °C 5.4 °C 1023.6 hPa Calm     88 % 0 mm
22:17 7.3 °C 5.4 °C 1023.2 hPa Calm     88 % 0 mm
22:22 7.3 °C 5.5 °C 1023.6 hPa Calm     88 % 0 mm
22:27 7.4 °C 5.6 °C 1023.2 hPa Calm     88 % 0 mm
22:28 7.4 °C 5.6 °C 1023.2 hPa Calm     88 % 0 mm
22:33 7.4 °C 5.4 °C 1023.2 hPa Calm     87 % 0 mm
22:36 7.4 °C 5.6 °C 1023.2 hPa Calm     88 % 0 mm
22:39 7.4 °C 5.6 °C 1023.2 hPa Calm     88 % 0 mm
22:41 7.5 °C 5.5 °C 1023.2 hPa Calm     87 % 0 mm
22:45 7.5 °C 5.5 °C 1023.2 hPa Calm     87 % 0 mm
22:48 7.4 °C 5.2 °C 1023.2 hPa Calm     86 % 0 mm
22:53 7.1 °C 5.1 °C 1023.2 hPa Calm     87 % 0 mm
22:58 7.2 °C 5.2 °C 1023.2 hPa WNW 1.9 km/h   87 % 0 mm
22:59 7.2 °C 5.2 °C 1023.2 hPa Calm     87 % 0 mm
23:04 7 °C 5 °C 1023.2 hPa Calm     87 % 0 mm
23:09 6.9 °C 4.9 °C 1023.2 hPa Calm     87 % 0 mm
23:14 6.9 °C 4.9 °C 1023.2 hPa Calm     87 % 0 mm
23:16 6.9 °C 4.9 °C 1023.2 hPa Calm     87 % 0 mm
23:22 6.9 °C 4.9 °C 1023.2 hPa Calm     87 % 0 mm
23:27 6.7 °C 4.7 °C 1023.2 hPa Calm     87 % 0 mm
23:29 6.7 °C 4.7 °C 1023.2 hPa Calm     87 % 0 mm
23:32 6.7 °C 4.7 °C 1023.2 hPa Calm     87 % 0 mm
23:34 6.7 °C 4.7 °C 1023.2 hPa Calm     87 % 0 mm
23:39 6.7 °C 4.7 °C 1023.2 hPa Calm     87 % 0 mm
23:42 6.7 °C 4.7 °C 1023.2 hPa Calm     87 % 0 mm
23:47 6.5 °C 4.5 °C 1023.2 hPa Calm     87 % 0 mm
23:52 6.3 °C 4.3 °C 1023.2 hPa Calm     87 % 0 mm
23:53 6.2 °C 4.2 °C 1023.2 hPa Calm     87 % 0 mm
23:58 6.2 °C 4.3 °C 1023.2 hPa Calm     88 % 0 mm
Park Place, Exeter, Tulare County, California, USA
Compliments of Weather Underground - 3.5 mb